sensor_id;sensor_type;location;lat;lon;timestamp;temperature;humidity
31677;DHT22;18385;51.572;6.578;2023-09-19T00:01:40;19.20;62.60
31677;DHT22;18385;51.572;6.578;2023-09-19T00:04:09;19.10;62.60
31677;DHT22;18385;51.572;6.578;2023-09-19T00:06:38;19.10;62.60
31677;DHT22;18385;51.572;6.578;2023-09-19T00:09:04;19.10;62.60
31677;DHT22;18385;51.572;6.578;2023-09-19T00:11:30;19.10;62.70
31677;DHT22;18385;51.572;6.578;2023-09-19T00:13:57;19.20;62.70
31677;DHT22;18385;51.572;6.578;2023-09-19T00:16:25;19.10;62.70
31677;DHT22;18385;51.572;6.578;2023-09-19T00:18:51;19.10;62.70
31677;DHT22;18385;51.572;6.578;2023-09-19T00:21:18;19.10;62.70
31677;DHT22;18385;51.572;6.578;2023-09-19T00:23:44;19.10;62.70
31677;DHT22;18385;51.572;6.578;2023-09-19T00:26:10;19.10;62.60
31677;DHT22;18385;51.572;6.578;2023-09-19T00:28:36;19.10;62.70
31677;DHT22;18385;51.572;6.578;2023-09-19T00:31:02;19.10;62.60
31677;DHT22;18385;51.572;6.578;2023-09-19T00:33:28;19.10;62.60
31677;DHT22;18385;51.572;6.578;2023-09-19T00:35:57;19.10;62.60
31677;DHT22;18385;51.572;6.578;2023-09-19T00:38:23;19.00;62.60
31677;DHT22;18385;51.572;6.578;2023-09-19T00:40:53;19.00;62.60
31677;DHT22;18385;51.572;6.578;2023-09-19T00:43:20;19.00;62.70
31677;DHT22;18385;51.572;6.578;2023-09-19T00:45:50;19.00;62.70
31677;DHT22;18385;51.572;6.578;2023-09-19T00:48:17;19.00;62.80
31677;DHT22;18385;51.572;6.578;2023-09-19T00:50:45;18.90;62.90
31677;DHT22;18385;51.572;6.578;2023-09-19T00:53:18;18.90;62.80
31677;DHT22;18385;51.572;6.578;2023-09-19T00:55:46;18.90;62.80
31677;DHT22;18385;51.572;6.578;2023-09-19T00:58:12;18.80;62.80
31677;DHT22;18385;51.572;6.578;2023-09-19T01:00:40;18.80;62.80
31677;DHT22;18385;51.572;6.578;2023-09-19T01:03:06;18.80;62.90
31677;DHT22;18385;51.572;6.578;2023-09-19T01:05:35;18.80;63.00
31677;DHT22;18385;51.572;6.578;2023-09-19T01:08:01;18.70;63.00
31677;DHT22;18385;51.572;6.578;2023-09-19T01:10:27;18.70;63.10
31677;DHT22;18385;51.572;6.578;2023-09-19T01:13:31;18.60;63.10
31677;DHT22;18385;51.572;6.578;2023-09-19T01:22:00;18.60;63.30
31677;DHT22;18385;51.572;6.578;2023-09-19T01:25:03;18.50;63.30
31677;DHT22;18385;51.572;6.578;2023-09-19T01:30:22;18.40;63.50
31677;DHT22;18385;51.572;6.578;2023-09-19T01:32:53;18.40;63.60
31677;DHT22;18385;51.572;6.578;2023-09-19T01:35:19;18.40;63.60
31677;DHT22;18385;51.572;6.578;2023-09-19T01:37:45;18.40;63.60
31677;DHT22;18385;51.572;6.578;2023-09-19T01:40:15;18.40;63.80
31677;DHT22;18385;51.572;6.578;2023-09-19T01:50:58;18.30;63.70
31677;DHT22;18385;51.572;6.578;2023-09-19T01:53:26;18.20;63.70
31677;DHT22;18385;51.572;6.578;2023-09-19T01:55:54;18.20;63.80
31677;DHT22;18385;51.572;6.578;2023-09-19T01:58:27;18.20;63.90
31677;DHT22;18385;51.572;6.578;2023-09-19T02:00:57;18.20;63.80
31677;DHT22;18385;51.572;6.578;2023-09-19T02:03:25;18.20;63.90
31677;DHT22;18385;51.572;6.578;2023-09-19T02:05:53;18.20;63.80
31677;DHT22;18385;51.572;6.578;2023-09-19T02:08:21;18.10;63.90
31677;DHT22;18385;51.572;6.578;2023-09-19T02:10:51;18.10;64.70
31677;DHT22;18385;51.572;6.578;2023-09-19T02:13:20;18.20;64.00
31677;DHT22;18385;51.572;6.578;2023-09-19T02:15:46;18.10;63.90
31677;DHT22;18385;51.572;6.578;2023-09-19T02:18:12;18.10;63.90
31677;DHT22;18385;51.572;6.578;2023-09-19T02:20:39;18.20;63.90
31677;DHT22;18385;51.572;6.578;2023-09-19T02:23:05;18.20;63.90
31677;DHT22;18385;51.572;6.578;2023-09-19T02:25:31;18.10;63.70
31677;DHT22;18385;51.572;6.578;2023-09-19T02:27:57;18.10;63.70
31677;DHT22;18385;51.572;6.578;2023-09-19T02:30:27;18.10;63.70
31677;DHT22;18385;51.572;6.578;2023-09-19T02:32:55;18.10;63.70
31677;DHT22;18385;51.572;6.578;2023-09-19T02:35:21;18.10;63.70
31677;DHT22;18385;51.572;6.578;2023-09-19T02:37:50;18.10;63.70
31677;DHT22;18385;51.572;6.578;2023-09-19T02:40:15;18.10;63.70
31677;DHT22;18385;51.572;6.578;2023-09-19T02:42:53;18.10;63.80
31677;DHT22;18385;51.572;6.578;2023-09-19T02:45:19;18.10;63.80
31677;DHT22;18385;51.572;6.578;2023-09-19T02:47:46;18.10;63.70
31677;DHT22;18385;51.572;6.578;2023-09-19T02:50:13;18.10;63.70
31677;DHT22;18385;51.572;6.578;2023-09-19T02:52:42;18.10;63.60
31677;DHT22;18385;51.572;6.578;2023-09-19T02:55:12;18.10;63.60
31677;DHT22;18385;51.572;6.578;2023-09-19T02:57:47;18.10;63.70
31677;DHT22;18385;51.572;6.578;2023-09-19T03:00:13;18.10;63.50
31677;DHT22;18385;51.572;6.578;2023-09-19T03:02:39;18.10;63.50
31677;DHT22;18385;51.572;6.578;2023-09-19T03:05:07;18.10;63.50
31677;DHT22;18385;51.572;6.578;2023-09-19T03:07:33;18.00;63.40
31677;DHT22;18385;51.572;6.578;2023-09-19T03:10:00;18.00;63.40
31677;DHT22;18385;51.572;6.578;2023-09-19T03:12:26;18.00;63.50
31677;DHT22;18385;51.572;6.578;2023-09-19T03:14:52;18.00;63.50
31677;DHT22;18385;51.572;6.578;2023-09-19T03:17:18;17.90;63.30
31677;DHT22;18385;51.572;6.578;2023-09-19T03:19:45;17.90;63.40
31677;DHT22;18385;51.572;6.578;2023-09-19T03:22:13;17.90;63.40
31677;DHT22;18385;51.572;6.578;2023-09-19T03:24:39;17.90;63.40
31677;DHT22;18385;51.572;6.578;2023-09-19T03:27:05;17.90;63.40
31677;DHT22;18385;51.572;6.578;2023-09-19T03:29:31;17.90;63.50
31677;DHT22;18385;51.572;6.578;2023-09-19T03:31:58;17.80;63.40
31677;DHT22;18385;51.572;6.578;2023-09-19T03:34:24;17.80;63.40
31677;DHT22;18385;51.572;6.578;2023-09-19T03:36:50;17.80;63.40
31677;DHT22;18385;51.572;6.578;2023-09-19T03:39:15;17.70;63.40
31677;DHT22;18385;51.572;6.578;2023-09-19T03:41:42;17.70;63.40
31677;DHT22;18385;51.572;6.578;2023-09-19T03:44:08;17.70;63.40
31677;DHT22;18385;51.572;6.578;2023-09-19T03:46:34;17.70;63.40
31677;DHT22;18385;51.572;6.578;2023-09-19T03:49:02;17.70;63.40
31677;DHT22;18385;51.572;6.578;2023-09-19T03:51:28;17.70;63.40
31677;DHT22;18385;51.572;6.578;2023-09-19T03:53:54;17.70;63.40
31677;DHT22;18385;51.572;6.578;2023-09-19T03:56:19;17.70;63.40
31677;DHT22;18385;51.572;6.578;2023-09-19T03:58:45;17.70;63.40
31677;DHT22;18385;51.572;6.578;2023-09-19T04:01:11;17.70;63.30
31677;DHT22;18385;51.572;6.578;2023-09-19T04:03:38;17.70;63.30
31677;DHT22;18385;51.572;6.578;2023-09-19T04:06:17;17.70;63.10
31677;DHT22;18385;51.572;6.578;2023-09-19T04:08:44;17.70;63.10
31677;DHT22;18385;51.572;6.578;2023-09-19T04:11:11;17.70;63.10
31677;DHT22;18385;51.572;6.578;2023-09-19T04:13:37;17.80;63.10
31677;DHT22;18385;51.572;6.578;2023-09-19T04:16:03;17.80;63.00
31677;DHT22;18385;51.572;6.578;2023-09-19T04:18:37;17.80;63.00
31677;DHT22;18385;51.572;6.578;2023-09-19T04:21:05;17.80;62.90
31677;DHT22;18385;51.572;6.578;2023-09-19T04:23:34;17.80;62.90
31677;DHT22;18385;51.572;6.578;2023-09-19T04:26:00;17.80;62.90
31677;DHT22;18385;51.572;6.578;2023-09-19T04:28:26;17.80;62.90
31677;DHT22;18385;51.572;6.578;2023-09-19T04:30:53;17.80;62.90
31677;DHT22;18385;51.572;6.578;2023-09-19T04:33:20;17.80;62.90
31677;DHT22;18385;51.572;6.578;2023-09-19T04:35:49;17.80;63.60
31677;DHT22;18385;51.572;6.578;2023-09-19T04:38:15;17.70;63.50
31677;DHT22;18385;51.572;6.578;2023-09-19T04:40:41;17.80;62.80
31677;DHT22;18385;51.572;6.578;2023-09-19T04:43:06;17.70;62.70
31677;DHT22;18385;51.572;6.578;2023-09-19T04:45:33;17.70;62.70
31677;DHT22;18385;51.572;6.578;2023-09-19T04:47:58;17.70;62.70
31677;DHT22;18385;51.572;6.578;2023-09-19T04:50:24;17.70;62.80
31677;DHT22;18385;51.572;6.578;2023-09-19T04:52:53;17.70;62.70
31677;DHT22;18385;51.572;6.578;2023-09-19T04:55:19;17.70;62.80
31677;DHT22;18385;51.572;6.578;2023-09-19T04:57:46;17.70;62.80
31677;DHT22;18385;51.572;6.578;2023-09-19T05:00:17;17.70;62.80
31677;DHT22;18385;51.572;6.578;2023-09-19T05:02:48;17.70;62.90
31677;DHT22;18385;51.572;6.578;2023-09-19T05:05:14;17.70;62.80
31677;DHT22;18385;51.572;6.578;2023-09-19T05:07:42;17.70;62.80
31677;DHT22;18385;51.572;6.578;2023-09-19T05:10:09;17.60;62.90
31677;DHT22;18385;51.572;6.578;2023-09-19T05:12:38;17.70;63.10
31677;DHT22;18385;51.572;6.578;2023-09-19T05:15:05;17.70;63.00
31677;DHT22;18385;51.572;6.578;2023-09-19T05:17:32;17.70;63.10
31677;DHT22;18385;51.572;6.578;2023-09-19T05:19:58;17.70;63.10
31677;DHT22;18385;51.572;6.578;2023-09-19T05:22:26;17.80;63.20
31677;DHT22;18385;51.572;6.578;2023-09-19T05:24:52;17.90;63.20
31677;DHT22;18385;51.572;6.578;2023-09-19T05:27:19;18.10;63.00
31677;DHT22;18385;51.572;6.578;2023-09-19T05:29:46;18.10;62.90
31677;DHT22;18385;51.572;6.578;2023-09-19T05:32:13;18.20;62.90
31677;DHT22;18385;51.572;6.578;2023-09-19T05:34:38;18.30;62.80
31677;DHT22;18385;51.572;6.578;2023-09-19T05:37:05;18.30;62.70
31677;DHT22;18385;51.572;6.578;2023-09-19T05:39:33;18.40;62.60
31677;DHT22;18385;51.572;6.578;2023-09-19T05:41:59;18.40;62.60
31677;DHT22;18385;51.572;6.578;2023-09-19T05:44:26;18.50;62.60
31677;DHT22;18385;51.572;6.578;2023-09-19T05:46:51;18.50;62.40
31677;DHT22;18385;51.572;6.578;2023-09-19T05:49:19;18.60;62.50
31677;DHT22;18385;51.572;6.578;2023-09-19T05:51:47;18.60;62.40
31677;DHT22;18385;51.572;6.578;2023-09-19T05:54:12;18.70;62.30
31677;DHT22;18385;51.572;6.578;2023-09-19T05:56:38;18.70;62.20
31677;DHT22;18385;51.572;6.578;2023-09-19T05:59:04;18.70;62.20
31677;DHT22;18385;51.572;6.578;2023-09-19T06:01:31;18.70;62.20
31677;DHT22;18385;51.572;6.578;2023-09-19T06:03:58;18.80;62.20
31677;DHT22;18385;51.572;6.578;2023-09-19T06:06:25;18.80;62.20
31677;DHT22;18385;51.572;6.578;2023-09-19T06:08:51;18.80;62.20
31677;DHT22;18385;51.572;6.578;2023-09-19T06:11:17;18.90;62.10
31677;DHT22;18385;51.572;6.578;2023-09-19T06:13:46;19.00;62.10
31677;DHT22;18385;51.572;6.578;2023-09-19T06:16:13;18.90;61.90
31677;DHT22;18385;51.572;6.578;2023-09-19T06:18:38;18.90;61.80
31677;DHT22;18385;51.572;6.578;2023-09-19T06:21:04;18.80;61.70
31677;DHT22;18385;51.572;6.578;2023-09-19T06:23:34;18.80;61.90
31677;DHT22;18385;51.572;6.578;2023-09-19T06:26:01;18.80;61.90
31677;DHT22;18385;51.572;6.578;2023-09-19T06:28:26;18.80;61.90
31677;DHT22;18385;51.572;6.578;2023-09-19T06:30:54;18.80;62.00
31677;DHT22;18385;51.572;6.578;2023-09-19T06:33:20;18.80;61.90
31677;DHT22;18385;51.572;6.578;2023-09-19T06:35:47;18.90;61.90
31677;DHT22;18385;51.572;6.578;2023-09-19T06:38:13;18.90;61.90
31677;DHT22;18385;51.572;6.578;2023-09-19T06:40:41;18.90;61.80
31677;DHT22;18385;51.572;6.578;2023-09-19T06:43:10;18.90;61.80
31677;DHT22;18385;51.572;6.578;2023-09-19T06:45:36;19.00;61.80
31677;DHT22;18385;51.572;6.578;2023-09-19T06:48:02;19.00;61.70
31677;DHT22;18385;51.572;6.578;2023-09-19T06:50:28;19.00;61.80
31677;DHT22;18385;51.572;6.578;2023-09-19T06:52:56;19.00;61.70
31677;DHT22;18385;51.572;6.578;2023-09-19T06:55:23;19.10;61.80
31677;DHT22;18385;51.572;6.578;2023-09-19T06:57:57;19.10;61.60
31677;DHT22;18385;51.572;6.578;2023-09-19T07:00:23;19.10;61.60
31677;DHT22;18385;51.572;6.578;2023-09-19T07:03:03;19.20;61.60
31677;DHT22;18385;51.572;6.578;2023-09-19T07:05:30;19.20;61.50
31677;DHT22;18385;51.572;6.578;2023-09-19T07:08:00;19.30;61.40
31677;DHT22;18385;51.572;6.578;2023-09-19T07:10:27;19.30;61.30
31677;DHT22;18385;51.572;6.578;2023-09-19T07:13:02;19.40;61.40
31677;DHT22;18385;51.572;6.578;2023-09-19T07:15:29;19.50;61.30
31677;DHT22;18385;51.572;6.578;2023-09-19T07:18:01;19.50;61.30
31677;DHT22;18385;51.572;6.578;2023-09-19T07:20:27;19.60;61.30
31677;DHT22;18385;51.572;6.578;2023-09-19T07:22:54;19.70;61.20
31677;DHT22;18385;51.572;6.578;2023-09-19T07:25:25;19.60;60.90
31677;DHT22;18385;51.572;6.578;2023-09-19T07:27:51;19.60;61.00
31677;DHT22;18385;51.572;6.578;2023-09-19T07:30:17;19.70;61.10
31677;DHT22;18385;51.572;6.578;2023-09-19T07:32:42;19.60;61.00
31677;DHT22;18385;51.572;6.578;2023-09-19T07:35:08;19.60;60.90
31677;DHT22;18385;51.572;6.578;2023-09-19T07:37:34;19.60;60.90
31677;DHT22;18385;51.572;6.578;2023-09-19T07:40:03;19.60;60.80
31677;DHT22;18385;51.572;6.578;2023-09-19T07:42:33;19.70;61.00
31677;DHT22;18385;51.572;6.578;2023-09-19T07:45:01;19.70;61.00
31677;DHT22;18385;51.572;6.578;2023-09-19T07:47:26;19.90;61.00
31677;DHT22;18385;51.572;6.578;2023-09-19T07:49:53;19.90;60.70
31677;DHT22;18385;51.572;6.578;2023-09-19T07:52:19;19.90;60.50
31677;DHT22;18385;51.572;6.578;2023-09-19T07:54:47;20.00;60.70
31677;DHT22;18385;51.572;6.578;2023-09-19T07:57:15;19.90;60.40
31677;DHT22;18385;51.572;6.578;2023-09-19T07:59:41;19.90;60.60
31677;DHT22;18385;51.572;6.578;2023-09-19T08:02:08;19.90;60.60
31677;DHT22;18385;51.572;6.578;2023-09-19T08:04:35;20.00;60.50
31677;DHT22;18385;51.572;6.578;2023-09-19T08:07:01;20.00;60.40
31677;DHT22;18385;51.572;6.578;2023-09-19T08:09:29;20.00;60.60
31677;DHT22;18385;51.572;6.578;2023-09-19T08:11:59;20.00;60.60
31677;DHT22;18385;51.572;6.578;2023-09-19T08:14:28;20.10;60.50
31677;DHT22;18385;51.572;6.578;2023-09-19T08:16:58;20.10;60.50
31677;DHT22;18385;51.572;6.578;2023-09-19T08:19:24;20.20;60.50
31677;DHT22;18385;51.572;6.578;2023-09-19T08:21:57;20.30;60.40
31677;DHT22;18385;51.572;6.578;2023-09-19T08:24:30;20.30;60.10
31677;DHT22;18385;51.572;6.578;2023-09-19T08:26:56;20.40;60.20
31677;DHT22;18385;51.572;6.578;2023-09-19T08:29:23;20.60;60.30
31677;DHT22;18385;51.572;6.578;2023-09-19T08:31:57;20.60;60.00
31677;DHT22;18385;51.572;6.578;2023-09-19T08:34:26;20.60;60.50
31677;DHT22;18385;51.572;6.578;2023-09-19T08:36:55;20.70;59.80
31677;DHT22;18385;51.572;6.578;2023-09-19T08:39:24;20.80;59.80
31677;DHT22;18385;51.572;6.578;2023-09-19T08:42:00;20.80;59.70
31677;DHT22;18385;51.572;6.578;2023-09-19T08:44:26;20.80;59.50
31677;DHT22;18385;51.572;6.578;2023-09-19T08:47:01;20.90;59.60
31677;DHT22;18385;51.572;6.578;2023-09-19T08:52:42;21.10;59.40
31677;DHT22;18385;51.572;6.578;2023-09-19T08:55:12;21.10;59.30
31677;DHT22;18385;51.572;6.578;2023-09-19T08:57:38;21.00;59.10
31677;DHT22;18385;51.572;6.578;2023-09-19T09:00:07;21.10;59.30
31677;DHT22;18385;51.572;6.578;2023-09-19T09:02:39;21.10;59.20
31677;DHT22;18385;51.572;6.578;2023-09-19T09:05:08;21.20;59.20
31677;DHT22;18385;51.572;6.578;2023-09-19T09:07:36;21.20;59.00
31677;DHT22;18385;51.572;6.578;2023-09-19T09:10:03;21.30;58.90
31677;DHT22;18385;51.572;6.578;2023-09-19T09:12:29;21.30;58.80
31677;DHT22;18385;51.572;6.578;2023-09-19T09:14:56;21.30;58.80
31677;DHT22;18385;51.572;6.578;2023-09-19T09:17:23;21.30;58.80
31677;DHT22;18385;51.572;6.578;2023-09-19T09:19:52;21.30;58.70
31677;DHT22;18385;51.572;6.578;2023-09-19T09:22:18;21.40;58.50
31677;DHT22;18385;51.572;6.578;2023-09-19T09:24:54;21.40;58.40
31677;DHT22;18385;51.572;6.578;2023-09-19T09:27:20;21.40;58.40
31677;DHT22;18385;51.572;6.578;2023-09-19T09:29:50;21.40;58.40
31677;DHT22;18385;51.572;6.578;2023-09-19T09:32:27;21.30;58.30
31677;DHT22;18385;51.572;6.578;2023-09-19T09:34:59;21.40;58.50
31677;DHT22;18385;51.572;6.578;2023-09-19T09:37:26;21.40;58.30
31677;DHT22;18385;51.572;6.578;2023-09-19T09:39:58;21.40;58.20
31677;DHT22;18385;51.572;6.578;2023-09-19T09:42:37;21.30;58.20
31677;DHT22;18385;51.572;6.578;2023-09-19T09:45:22;21.40;58.20
31677;DHT22;18385;51.572;6.578;2023-09-19T09:48:03;21.50;58.10
31677;DHT22;18385;51.572;6.578;2023-09-19T09:50:38;21.60;57.90
31677;DHT22;18385;51.572;6.578;2023-09-19T09:53:26;21.70;57.90
31677;DHT22;18385;51.572;6.578;2023-09-19T09:59:04;22.00;57.60
31677;DHT22;18385;51.572;6.578;2023-09-19T10:01:24;22.10;57.50
31677;DHT22;18385;51.572;6.578;2023-09-19T10:03:57;22.20;57.30
31677;DHT22;18385;51.572;6.578;2023-09-19T10:06:23;22.20;56.80
31677;DHT22;18385;51.572;6.578;2023-09-19T10:09:08;22.30;56.90
31677;DHT22;18385;51.572;6.578;2023-09-19T10:11:44;22.40;56.90
31677;DHT22;18385;51.572;6.578;2023-09-19T10:14:16;22.50;56.80
31677;DHT22;18385;51.572;6.578;2023-09-19T10:16:46;22.70;56.70
31677;DHT22;18385;51.572;6.578;2023-09-19T10:19:37;22.70;56.40
31677;DHT22;18385;51.572;6.578;2023-09-19T10:22:04;22.80;56.00
31677;DHT22;18385;51.572;6.578;2023-09-19T10:24:33;22.60;56.00
31677;DHT22;18385;51.572;6.578;2023-09-19T10:27:02;22.70;56.20
31677;DHT22;18385;51.572;6.578;2023-09-19T10:29:32;22.90;56.10
31677;DHT22;18385;51.572;6.578;2023-09-19T10:32:03;23.00;55.90
31677;DHT22;18385;51.572;6.578;2023-09-19T10:34:35;23.20;55.80
31677;DHT22;18385;51.572;6.578;2023-09-19T10:37:02;23.20;55.10
31677;DHT22;18385;51.572;6.578;2023-09-19T10:39:35;23.10;55.10
31677;DHT22;18385;51.572;6.578;2023-09-19T10:42:05;23.00;55.20
31677;DHT22;18385;51.572;6.578;2023-09-19T10:44:32;23.10;55.30
31677;DHT22;18385;51.572;6.578;2023-09-19T10:46:58;23.20;55.00
31677;DHT22;18385;51.572;6.578;2023-09-19T10:49:25;23.10;54.60
31677;DHT22;18385;51.572;6.578;2023-09-19T10:51:56;23.00;54.80
31677;DHT22;18385;51.572;6.578;2023-09-19T10:54:30;23.10;54.90
31677;DHT22;18385;51.572;6.578;2023-09-19T10:56:58;23.10;54.60
31677;DHT22;18385;51.572;6.578;2023-09-19T10:59:25;23.10;54.40
31677;DHT22;18385;51.572;6.578;2023-09-19T11:01:57;23.20;54.40
31677;DHT22;18385;51.572;6.578;2023-09-19T11:09:55;23.40;54.20
31677;DHT22;18385;51.572;6.578;2023-09-19T11:26:44;24.00;53.50
31677;DHT22;18385;51.572;6.578;2023-09-19T11:29:30;24.20;53.10
31677;DHT22;18385;51.572;6.578;2023-09-19T11:31:57;24.20;52.50
31677;DHT22;18385;51.572;6.578;2023-09-19T11:40:10;24.50;52.40
31677;DHT22;18385;51.572;6.578;2023-09-19T11:42:46;24.60;52.20
31677;DHT22;18385;51.572;6.578;2023-09-19T11:48:18;24.70;51.40
31677;DHT22;18385;51.572;6.578;2023-09-19T11:50:45;24.60;52.00
31677;DHT22;18385;51.572;6.578;2023-09-19T11:53:12;24.50;51.20
31677;DHT22;18385;51.572;6.578;2023-09-19T11:55:39;24.50;51.40
31677;DHT22;18385;51.572;6.578;2023-09-19T11:58:07;24.50;51.80
31677;DHT22;18385;51.572;6.578;2023-09-19T12:00:35;24.40;50.90
31677;DHT22;18385;51.572;6.578;2023-09-19T12:03:12;24.40;51.10
31677;DHT22;18385;51.572;6.578;2023-09-19T12:05:39;24.50;51.00
31677;DHT22;18385;51.572;6.578;2023-09-19T12:08:06;24.50;50.80
31677;DHT22;18385;51.572;6.578;2023-09-19T12:10:49;24.50;50.70
31677;DHT22;18385;51.572;6.578;2023-09-19T12:13:19;24.60;50.50
31677;DHT22;18385;51.572;6.578;2023-09-19T12:15:46;24.60;50.50
31677;DHT22;18385;51.572;6.578;2023-09-19T12:18:30;24.60;50.40
31677;DHT22;18385;51.572;6.578;2023-09-19T12:20:57;24.70;50.20
31677;DHT22;18385;51.572;6.578;2023-09-19T12:23:28;24.70;50.60
31677;DHT22;18385;51.572;6.578;2023-09-19T12:25:55;24.70;50.00
31677;DHT22;18385;51.572;6.578;2023-09-19T12:28:25;24.70;50.00
31677;DHT22;18385;51.572;6.578;2023-09-19T12:30:52;25.00;50.00
31677;DHT22;18385;51.572;6.578;2023-09-19T12:33:21;25.20;49.80
31677;DHT22;18385;51.572;6.578;2023-09-19T12:35:51;25.30;49.50
31677;DHT22;18385;51.572;6.578;2023-09-19T12:38:26;25.30;49.30
31677;DHT22;18385;51.572;6.578;2023-09-19T12:40:57;25.30;48.90
31677;DHT22;18385;51.572;6.578;2023-09-19T12:43:29;25.40;49.10
31677;DHT22;18385;51.572;6.578;2023-09-19T12:45:58;25.40;48.90
31677;DHT22;18385;51.572;6.578;2023-09-19T12:48:26;25.50;48.80
31677;DHT22;18385;51.572;6.578;2023-09-19T12:53:46;25.40;48.40
31677;DHT22;18385;51.572;6.578;2023-09-19T12:56:16;25.40;48.60
31677;DHT22;18385;51.572;6.578;2023-09-19T12:58:57;25.30;48.20
31677;DHT22;18385;51.572;6.578;2023-09-19T13:01:28;25.10;47.80
31677;DHT22;18385;51.572;6.578;2023-09-19T13:04:13;25.00;48.00
31677;DHT22;18385;51.572;6.578;2023-09-19T13:06:44;25.10;48.30
31677;DHT22;18385;51.572;6.578;2023-09-19T13:09:10;25.30;48.50
31677;DHT22;18385;51.572;6.578;2023-09-19T13:11:38;25.50;48.20
31677;DHT22;18385;51.572;6.578;2023-09-19T13:14:16;25.70;47.90
31677;DHT22;18385;51.572;6.578;2023-09-19T13:17:06;25.90;48.00
31677;DHT22;18385;51.572;6.578;2023-09-19T13:19:51;25.80;47.40
31677;DHT22;18385;51.572;6.578;2023-09-19T13:22:43;26.00;47.80
31677;DHT22;18385;51.572;6.578;2023-09-19T13:25:21;25.80;47.00
31677;DHT22;18385;51.572;6.578;2023-09-19T13:27:52;25.60;47.00
31677;DHT22;18385;51.572;6.578;2023-09-19T13:30:20;25.40;46.80
31677;DHT22;18385;51.572;6.578;2023-09-19T13:32:46;25.40;47.20
31677;DHT22;18385;51.572;6.578;2023-09-19T13:35:15;25.30;47.10
31677;DHT22;18385;51.572;6.578;2023-09-19T13:37:41;25.40;47.10
31677;DHT22;18385;51.572;6.578;2023-09-19T13:42:34;25.30;46.90
31677;DHT22;18385;51.572;6.578;2023-09-19T13:45:04;25.30;46.80
31677;DHT22;18385;51.572;6.578;2023-09-19T13:47:34;25.30;46.80
31677;DHT22;18385;51.572;6.578;2023-09-19T13:50:02;25.20;46.70
31677;DHT22;18385;51.572;6.578;2023-09-19T13:52:30;25.10;46.70
31677;DHT22;18385;51.572;6.578;2023-09-19T13:54:56;25.00;46.70
31677;DHT22;18385;51.572;6.578;2023-09-19T13:57:25;24.80;46.60
31677;DHT22;18385;51.572;6.578;2023-09-19T13:59:54;24.70;46.70
31677;DHT22;18385;51.572;6.578;2023-09-19T14:02:21;24.60;46.90
31677;DHT22;18385;51.572;6.578;2023-09-19T14:04:51;24.50;47.00
31677;DHT22;18385;51.572;6.578;2023-09-19T14:07:17;24.50;47.00
31677;DHT22;18385;51.572;6.578;2023-09-19T14:09:44;24.50;47.10
31677;DHT22;18385;51.572;6.578;2023-09-19T14:12:11;24.50;47.10
31677;DHT22;18385;51.572;6.578;2023-09-19T14:14:38;24.60;47.20
31677;DHT22;18385;51.572;6.578;2023-09-19T14:17:05;24.70;47.00
31677;DHT22;18385;51.572;6.578;2023-09-19T14:19:32;24.70;46.80
31677;DHT22;18385;51.572;6.578;2023-09-19T14:21:58;24.70;46.90
31677;DHT22;18385;51.572;6.578;2023-09-19T14:24:24;24.60;46.60
31677;DHT22;18385;51.572;6.578;2023-09-19T14:26:50;24.50;46.50
31677;DHT22;18385;51.572;6.578;2023-09-19T14:29:16;24.30;46.70
31677;DHT22;18385;51.572;6.578;2023-09-19T14:31:42;24.20;46.80
31677;DHT22;18385;51.572;6.578;2023-09-19T14:34:08;24.10;47.10
31677;DHT22;18385;51.572;6.578;2023-09-19T14:36:37;24.10;47.10
31677;DHT22;18385;51.572;6.578;2023-09-19T14:39:04;24.00;47.10
31677;DHT22;18385;51.572;6.578;2023-09-19T14:41:30;24.00;47.20
31677;DHT22;18385;51.572;6.578;2023-09-19T14:43:57;24.10;47.20
31677;DHT22;18385;51.572;6.578;2023-09-19T14:46:22;24.20;47.10
31677;DHT22;18385;51.572;6.578;2023-09-19T14:48:52;24.20;47.00
31677;DHT22;18385;51.572;6.578;2023-09-19T14:51:19;24.10;47.10
31677;DHT22;18385;51.572;6.578;2023-09-19T14:53:45;24.20;47.20
31677;DHT22;18385;51.572;6.578;2023-09-19T14:56:14;24.20;47.10
31677;DHT22;18385;51.572;6.578;2023-09-19T14:58:43;24.20;47.10
31677;DHT22;18385;51.572;6.578;2023-09-19T15:01:11;24.20;47.10
31677;DHT22;18385;51.572;6.578;2023-09-19T15:03:39;24.10;47.10
31677;DHT22;18385;51.572;6.578;2023-09-19T15:06:09;24.10;47.10
31677;DHT22;18385;51.572;6.578;2023-09-19T15:08:37;24.00;47.10
31677;DHT22;18385;51.572;6.578;2023-09-19T15:11:09;23.90;47.20
31677;DHT22;18385;51.572;6.578;2023-09-19T15:13:36;23.90;47.40
31677;DHT22;18385;51.572;6.578;2023-09-19T15:16:04;24.00;47.60
31677;DHT22;18385;51.572;6.578;2023-09-19T15:18:30;24.10;47.40
31677;DHT22;18385;51.572;6.578;2023-09-19T15:20:57;24.20;47.30
31677;DHT22;18385;51.572;6.578;2023-09-19T15:23:22;24.30;47.20
31677;DHT22;18385;51.572;6.578;2023-09-19T15:25:51;24.50;47.40
31677;DHT22;18385;51.572;6.578;2023-09-19T15:28:17;24.70;47.10
31677;DHT22;18385;51.572;6.578;2023-09-19T15:30:43;24.80;46.90
31677;DHT22;18385;51.572;6.578;2023-09-19T15:33:09;24.70;46.70
31677;DHT22;18385;51.572;6.578;2023-09-19T15:35:35;24.60;46.80
31677;DHT22;18385;51.572;6.578;2023-09-19T15:38:03;24.60;46.90
31677;DHT22;18385;51.572;6.578;2023-09-19T15:40:29;24.70;46.90
31677;DHT22;18385;51.572;6.578;2023-09-19T15:42:55;24.80;47.00
31677;DHT22;18385;51.572;6.578;2023-09-19T15:45:22;24.80;46.80
31677;DHT22;18385;51.572;6.578;2023-09-19T15:47:48;24.70;46.70
31677;DHT22;18385;51.572;6.578;2023-09-19T15:50:14;24.60;46.70
31677;DHT22;18385;51.572;6.578;2023-09-19T15:52:41;24.50;46.80
31677;DHT22;18385;51.572;6.578;2023-09-19T15:55:08;24.40;46.80
31677;DHT22;18385;51.572;6.578;2023-09-19T15:57:37;24.40;46.90
31677;DHT22;18385;51.572;6.578;2023-09-19T16:00:04;24.40;46.90
31677;DHT22;18385;51.572;6.578;2023-09-19T16:02:37;24.30;46.90
31677;DHT22;18385;51.572;6.578;2023-09-19T16:05:02;24.20;46.90
31677;DHT22;18385;51.572;6.578;2023-09-19T16:07:32;24.20;47.00
31677;DHT22;18385;51.572;6.578;2023-09-19T16:09:59;24.10;47.00
31677;DHT22;18385;51.572;6.578;2023-09-19T16:12:25;24.10;47.10
31677;DHT22;18385;51.572;6.578;2023-09-19T16:14:51;24.00;47.20
31677;DHT22;18385;51.572;6.578;2023-09-19T16:17:17;23.90;47.10
31677;DHT22;18385;51.572;6.578;2023-09-19T16:19:43;23.90;47.20
31677;DHT22;18385;51.572;6.578;2023-09-19T16:22:10;23.80;47.30
31677;DHT22;18385;51.572;6.578;2023-09-19T16:24:36;23.80;47.40
31677;DHT22;18385;51.572;6.578;2023-09-19T16:27:01;23.80;47.50
31677;DHT22;18385;51.572;6.578;2023-09-19T16:29:27;23.80;47.50
31677;DHT22;18385;51.572;6.578;2023-09-19T16:31:53;23.80;47.50
31677;DHT22;18385;51.572;6.578;2023-09-19T16:34:19;23.80;47.50
31677;DHT22;18385;51.572;6.578;2023-09-19T16:36:44;23.70;47.50